Terminal Aerodrome Forecast
Issued by NWS Buffalo, NY

Home | Current Version | Previous Version | Text Only | Print | Product List | Glossary On
Versions: 1 2 3 4 5 6 7 8 9 10 11 12 13 14 15 16 17 18
000
FTUS41 KBUF 250917 AAA
TAFART
TAF AMD
KART 250917Z 2509/2606 18008KT 6SM -SHRA OVC080
     FM251500 18006KT P6SM VCSH OVC080
     FM251800 21012G18KT P6SM BKN070
     FM252200 21010KT P6SM BKN050
     FM260200 20008KT P6SM VCSH BKN080=

USA.gov is the U.S. government's official web portal to all federal, state and local government web resources and services.